Shunxin188 — BBIT3 — position and weather

sailwx.info

Track history (hours):
 
Tides and Currents Weather Stations Pressure Air Temp Water Temp Dewpoint Dewpoint Depression Visibility Wind Speed Wind Dir Waves Ship Positions

Shunxin188

Last reported at 2017-Nov-30 06:53 UTC. Time now 2017-Dec-13 16:52 UTC.
Position N 21°05' E 110°49'.
Warning: this ship's position is 13 days out of date.

Length 83 m; draft 5 m.

Type: Cargo ship. MMSI: 413322360.

Date/timePositionNaut miles runAvg speedWind from/ knotsBaromVisibWave heightAir tempDewpointWater temp
2017-Nov-30 06:53N 21°05' E 110°49'3 7.1
2017-Nov-30 06:30N 21°04' E 110°46'4 7.6
2017-Nov-30 05:58N 21°03' E 110°42'4 7.9
2017-Nov-30 05:30N 21°03' E 110°38'4 8.6
2017-Nov-30 05:01N 21°04' E 110°34'3 6.1
2017-Nov-30 04:29N 21°04' E 110°30'0 0.3
2017-Nov-30 03:56N 21°04' E 110°30'0 0.0
2017-Nov-30 03:26N 21°04' E 110°30'0 0.0
2017-Nov-30 02:56N 21°04' E 110°30'0 0.0
2017-Nov-30 02:26N 21°05' E 110°30'0 0.0
2017-Nov-30 01:59N 21°05' E 110°30'0 0.0
2017-Nov-30 01:26N 21°05' E 110°30'0 0.0
2017-Nov-30 00:44N 21°04' E 110°30'0 0.0
2017-Nov-29 16:26N 21°05' E 110°30'0 0.0
2017-Nov-29 15:59N 21°05' E 110°30'0 0.0
2017-Nov-29 15:20N 21°04' E 110°30'0 0.0
2017-Nov-29 14:53N 21°05' E 110°30'0 0.0
2017-Nov-29 14:29N 21°05' E 110°30'0 0.0
2017-Nov-29 13:59N 21°05' E 110°30'0 0.0
2017-Nov-29 13:29N 21°05' E 110°30'0 0.0
2017-Nov-29 12:56N 21°05' E 110°30'0 0.0
2017-Nov-29 12:29N 21°05' E 110°30'0 0.0
2017-Nov-29 11:56N 21°05' E 110°30'0 0.0
2017-Nov-29 11:20N 21°05' E 110°30'0 0.0
2017-Nov-29 10:53N 21°05' E 110°30'0 0.0
2017-Nov-29 10:26N 21°05' E 110°30'0 0.0
2017-Nov-29 09:59N 21°05' E 110°30'0 0.0
2017-Nov-29 09:20N 21°05' E 110°30'0 0.0
2017-Nov-29 08:59N 21°05' E 110°30'0 0.0
2017-Nov-29 08:29N 21°05' E 110°30'0 0.0
2017-Nov-29 07:56N 21°05' E 110°30'0 0.0
2017-Nov-29 07:26N 21°05' E 110°30'1 0.1
2017-Nov-28 11:58N 21°05' E 110°31'0 0.0
2017-Nov-28 11:22N 21°05' E 110°31'0 0.0
2017-Nov-28 10:58N 21°05' E 110°31'0 0.0
2017-Nov-28 10:28N 21°05' E 110°31'0 0.0
2017-Nov-28 09:01N 21°05' E 110°31'0 0.1
2017-Nov-28 08:55N 21°05' E 110°31'0 0.0
2017-Nov-28 08:25N 21°05' E 110°31'0 0.0
2017-Nov-28 07:55N 21°05' E 110°31'0 0.0
2017-Nov-28 07:28N 21°05' E 110°31'0 0.0
2017-Nov-28 06:55N 21°05' E 110°31'0 0.0
2017-Nov-28 06:22N 21°05' E 110°31'0 0.0
2017-Nov-28 05:58N 21°05' E 110°31'0 0.0
2017-Nov-28 05:28N 21°05' E 110°31'0 0.0
2017-Nov-28 04:28N 21°05' E 110°31'0 0.1
2017-Nov-28 03:52N 21°05' E 110°31'0 0.7
2017-Nov-28 03:30N 21°05' E 110°31'0 0.0
2017-Nov-28 03:01N 21°05' E 110°31'0 0.0
2017-Nov-28 02:31N 21°05' E 110°31'0 0.0
2017-Nov-28 02:00N 21°05' E 110°31'0 0.0
2017-Nov-28 01:30N 21°05' E 110°31'0 0.0
2017-Nov-28 00:58N 21°05' E 110°31'0 0.0
2017-Nov-28 00:31N 21°05' E 110°31'0 0.0
2017-Nov-27 19:06N 21°05' E 110°31'0 1.4
2017-Nov-27 19:00N 21°05' E 110°30'2 2.9
2017-Nov-27 18:24N 21°04' E 110°29'0 0.0
2017-Nov-27 18:00N 21°04' E 110°29'0 0.0
2017-Nov-27 17:30N 21°04' E 110°29'0 0.0
2017-Nov-27 16:51N 21°04' E 110°29'0 0.0
2017-Nov-27 16:27N 21°04' E 110°29'0 0.0
2017-Nov-27 15:54N 21°04' E 110°29'0 0.0
2017-Nov-27 15:12N 21°04' E 110°29'0 0.0
2017-Nov-27 15:00N 21°04' E 110°29'0 0.0
2017-Nov-27 14:30N 21°04' E 110°29'0 0.0
2017-Nov-27 13:06N 21°04' E 110°29'0 0.0
2017-Nov-27 12:36N 21°04' E 110°29'0 0.0
2017-Nov-27 12:24N 21°04' E 110°29'0 0.0
2017-Nov-27 10:12N 21°04' E 110°29'0 0.0
2017-Nov-27 09:54N 21°04' E 110°29'0 0.0
2017-Nov-27 09:30N 21°04' E 110°29'0 0.0
2017-Nov-27 09:00N 21°04' E 110°29'0 0.0
2017-Nov-27 08:21N 21°04' E 110°29'0 0.0
2017-Nov-27 08:00N 21°04' E 110°29'0 0.0
2017-Nov-27 07:27N 21°04' E 110°29'0 0.0
2017-Nov-27 07:00N 21°04' E 110°29'0 0.0
2017-Nov-27 06:30N 21°04' E 110°29'0 0.0
2017-Nov-27 06:00N 21°04' E 110°29'0 0.0
2017-Nov-26 13:49N 21°04' E 110°29'0 0.0
2017-Nov-26 13:10N 21°04' E 110°29'0 0.0
2017-Nov-26 12:52N 21°04' E 110°29'0 0.0
2017-Nov-26 12:26N 21°04' E 110°29'0 0.0
2017-Nov-26 11:47N 21°04' E 110°29'0 0.0
2017-Nov-26 11:29N 21°04' E 110°29'0 0.0
2017-Nov-26 02:26N 21°04' E 110°29'0 0.0
2017-Nov-26 01:53N 21°04' E 110°29'0 0.0
2017-Nov-26 01:29N 21°04' E 110°29'0 0.0
2017-Nov-26 00:59N 21°04' E 110°29'0 0.0
2017-Nov-26 00:29N 21°04' E 110°29'0 0.1
2017-Nov-26 00:00N 21°04' E 110°29'2 3.1
2017-Nov-25 23:30N 21°05' E 110°30'3 6.6
2017-Nov-25 23:00N 21°04' E 110°34'3 6.5
2017-Nov-25 22:30N 21°03' E 110°37'4 7.2
2017-Nov-25 22:00N 21°03' E 110°41'4 7.4
2017-Nov-25 21:29N 21°03' E 110°45'  
2017-Nov-23 15:53N 23°57' E 117°51'19 7.2
2017-Nov-23 13:19N 24°11' E 118°04'3 7.7
2017-Nov-23 12:59N 24°13' E 118°06'4 8.0
2017-Nov-23 12:30N 24°14' E 118°10'4 7.9
2017-Nov-23 12:00N 24°16' E 118°14'4 8.0
2017-Nov-23 11:30N 24°18' E 118°18'4 7.9
2017-Nov-23 11:00N 24°20' E 118°22'4 8.6
2017-Nov-23 10:30N 24°22' E 118°26'4 8.5
2017-Nov-23 09:59N 24°24' E 118°30'  
Track history (hours):
 
Tides and Currents Weather Stations Pressure Air Temp Water Temp Dewpoint Dewpoint Depression Visibility Wind Speed Wind Dir Waves Ship Positions

Shunxin188

Last reported at 2017-Nov-30 06:53 UTC. Time now 2017-Dec-13 16:52 UTC.
Position N 21°05' E 110°49'.
Warning: this ship's position is 13 days out of date.

Length 83 m; draft 5 m.

Type: Cargo ship. MMSI: 413322360.

Date/timePositionNaut miles runAvg speedWind from/ knotsBaromVisibWave heightAir tempDewpointWater temp
2017-Nov-30 06:53N 21°05' E 110°49'3 7.1
2017-Nov-30 06:30N 21°04' E 110°46'4 7.6
2017-Nov-30 05:58N 21°03' E 110°42'4 7.9
2017-Nov-30 05:30N 21°03' E 110°38'4 8.6
2017-Nov-30 05:01N 21°04' E 110°34'3 6.1
2017-Nov-30 04:29N 21°04' E 110°30'0 0.3
2017-Nov-30 03:56N 21°04' E 110°30'0 0.0
2017-Nov-30 03:26N 21°04' E 110°30'0 0.0
2017-Nov-30 02:56N 21°04' E 110°30'0 0.0
2017-Nov-30 02:26N 21°05' E 110°30'0 0.0
2017-Nov-30 01:59N 21°05' E 110°30'0 0.0
2017-Nov-30 01:26N 21°05' E 110°30'0 0.0
2017-Nov-30 00:44N 21°04' E 110°30'0 0.0
2017-Nov-29 16:26N 21°05' E 110°30'0 0.0
2017-Nov-29 15:59N 21°05' E 110°30'0 0.0
2017-Nov-29 15:20N 21°04' E 110°30'0 0.0
2017-Nov-29 14:53N 21°05' E 110°30'0 0.0
2017-Nov-29 14:29N 21°05' E 110°30'0 0.0
2017-Nov-29 13:59N 21°05' E 110°30'0 0.0
2017-Nov-29 13:29N 21°05' E 110°30'0 0.0
2017-Nov-29 12:56N 21°05' E 110°30'0 0.0
2017-Nov-29 12:29N 21°05' E 110°30'0 0.0
2017-Nov-29 11:56N 21°05' E 110°30'0 0.0
2017-Nov-29 11:20N 21°05' E 110°30'0 0.0
2017-Nov-29 10:53N 21°05' E 110°30'0 0.0
2017-Nov-29 10:26N 21°05' E 110°30'0 0.0
2017-Nov-29 09:59N 21°05' E 110°30'0 0.0
2017-Nov-29 09:20N 21°05' E 110°30'0 0.0
2017-Nov-29 08:59N 21°05' E 110°30'0 0.0
2017-Nov-29 08:29N 21°05' E 110°30'0 0.0
2017-Nov-29 07:56N 21°05' E 110°30'0 0.0
2017-Nov-29 07:26N 21°05' E 110°30'1 0.1
2017-Nov-28 11:58N 21°05' E 110°31'0 0.0
2017-Nov-28 11:22N 21°05' E 110°31'0 0.0
2017-Nov-28 10:58N 21°05' E 110°31'0 0.0
2017-Nov-28 10:28N 21°05' E 110°31'0 0.0
2017-Nov-28 09:01N 21°05' E 110°31'0 0.1
2017-Nov-28 08:55N 21°05' E 110°31'0 0.0
2017-Nov-28 08:25N 21°05' E 110°31'0 0.0
2017-Nov-28 07:55N 21°05' E 110°31'0 0.0
2017-Nov-28 07:28N 21°05' E 110°31'0 0.0
2017-Nov-28 06:55N 21°05' E 110°31'0 0.0
2017-Nov-28 06:22N 21°05' E 110°31'0 0.0
2017-Nov-28 05:58N 21°05' E 110°31'0 0.0
2017-Nov-28 05:28N 21°05' E 110°31'0 0.0
2017-Nov-28 04:28N 21°05' E 110°31'0 0.1
2017-Nov-28 03:52N 21°05' E 110°31'0 0.7
2017-Nov-28 03:30N 21°05' E 110°31'0 0.0
2017-Nov-28 03:01N 21°05' E 110°31'0 0.0
2017-Nov-28 02:31N 21°05' E 110°31'0 0.0
2017-Nov-28 02:00N 21°05' E 110°31'0 0.0
2017-Nov-28 01:30N 21°05' E 110°31'0 0.0
2017-Nov-28 00:58N 21°05' E 110°31'0 0.0
2017-Nov-28 00:31N 21°05' E 110°31'0 0.0
2017-Nov-27 19:06N 21°05' E 110°31'0 1.4
2017-Nov-27 19:00N 21°05' E 110°30'2 2.9
2017-Nov-27 18:24N 21°04' E 110°29'0 0.0
2017-Nov-27 18:00N 21°04' E 110°29'0 0.0
2017-Nov-27 17:30N 21°04' E 110°29'0 0.0
2017-Nov-27 16:51N 21°04' E 110°29'0 0.0
2017-Nov-27 16:27N 21°04' E 110°29'0 0.0
2017-Nov-27 15:54N 21°04' E 110°29'0 0.0
2017-Nov-27 15:12N 21°04' E 110°29'0 0.0
2017-Nov-27 15:00N 21°04' E 110°29'0 0.0
2017-Nov-27 14:30N 21°04' E 110°29'0 0.0
2017-Nov-27 13:06N 21°04' E 110°29'0 0.0
2017-Nov-27 12:36N 21°04' E 110°29'0 0.0
2017-Nov-27 12:24N 21°04' E 110°29'0 0.0
2017-Nov-27 10:12N 21°04' E 110°29'0 0.0
2017-Nov-27 09:54N 21°04' E 110°29'0 0.0
2017-Nov-27 09:30N 21°04' E 110°29'0 0.0
2017-Nov-27 09:00N 21°04' E 110°29'0 0.0
2017-Nov-27 08:21N 21°04' E 110°29'0 0.0
2017-Nov-27 08:00N 21°04' E 110°29'0 0.0
2017-Nov-27 07:27N 21°04' E 110°29'0 0.0
2017-Nov-27 07:00N 21°04' E 110°29'0 0.0
2017-Nov-27 06:30N 21°04' E 110°29'0 0.0
2017-Nov-27 06:00N 21°04' E 110°29'0 0.0
2017-Nov-26 13:49N 21°04' E 110°29'0 0.0
2017-Nov-26 13:10N 21°04' E 110°29'0 0.0
2017-Nov-26 12:52N 21°04' E 110°29'0 0.0
2017-Nov-26 12:26N 21°04' E 110°29'0 0.0
2017-Nov-26 11:47N 21°04' E 110°29'0 0.0
2017-Nov-26 11:29N 21°04' E 110°29'0 0.0
2017-Nov-26 02:26N 21°04' E 110°29'0 0.0
2017-Nov-26 01:53N 21°04' E 110°29'0 0.0
2017-Nov-26 01:29N 21°04' E 110°29'0 0.0
2017-Nov-26 00:59N 21°04' E 110°29'0 0.0
2017-Nov-26 00:29N 21°04' E 110°29'0 0.1
2017-Nov-26 00:00N 21°04' E 110°29'2 3.1
2017-Nov-25 23:30N 21°05' E 110°30'3 6.6
2017-Nov-25 23:00N 21°04' E 110°34'3 6.5
2017-Nov-25 22:30N 21°03' E 110°37'4 7.2
2017-Nov-25 22:00N 21°03' E 110°41'4 7.4
2017-Nov-25 21:29N 21°03' E 110°45'  
2017-Nov-23 15:53N 23°57' E 117°51'19 7.2
2017-Nov-23 13:19N 24°11' E 118°04'3 7.7
2017-Nov-23 12:59N 24°13' E 118°06'4 8.0
2017-Nov-23 12:30N 24°14' E 118°10'4 7.9
2017-Nov-23 12:00N 24°16' E 118°14'4 8.0
2017-Nov-23 11:30N 24°18' E 118°18'4 7.9
2017-Nov-23 11:00N 24°20' E 118°22'4 8.6
2017-Nov-23 10:30N 24°22' E 118°26'4 8.5
2017-Nov-23 09:59N 24°24' E 118°30'  

Dump ship's entire track history